Airfield :
LOGIN :

Register | Disclaimer

   EN    FR    IT 

 










Legend :    VFR   Marginal VFR   IFR   Intensive IFR   Very Intensive IFR
Visi :
Ceiling :
>= 8 km
>= 3000ft
5 to 8 km
1000 to 3000 ft
1500m to 5 km
500 to 1000 ft
800 to 1500m
200 to 500 ft
< 800m
< 200 ft
Symbols :   Thunderstorms  Fog  Heavy snow  Heavy precipitations  Wind > 20 kt
SIGMETs :     Misc.  Thunderstorms  Icing  Turbulence  Mountain Waves  Volcanic Ashes






- Airport Elevation : 238 ft
- IATA code : FAB


EGLF - Farnborough

CURRENT METAR :
  • 182250Z AUTO 23001KT 9999 NCD 17/13 Q1019

EXPIRED METARs :
  • 182220Z AUTO 17003KT 9999 NCD 18/13 Q1019
  • 182150Z AUTO 17002KT 9999 NCD 18/13 Q1019
  • 182120Z AUTO 22002KT 9999 NCD 18/13 Q1020
  • 182050Z AUTO 14003KT 9999 NCD 20/13 Q1020
  • 182020Z AUTO 17003KT 9999 NCD 22/13 Q1020
  • 181950Z AUTO 17005KT 9999 NCD 22/13 Q1019
  • 181920Z AUTO 18006KT 9999 NCD 23/13 Q1019
  • 181850Z AUTO 18008KT 9999 NCD 24/13 Q1019
  • 181820Z AUTO 18008KT 9999 NCD 25/13 Q1019

Expired Forecast.
ATIS : +44 09063 800 400 (*282)



MET'MAP, your aeronautical weather chart ! - Copyright ORBIFLY December 2007 - Disclaimer

ORBIFLY MET'MAP TEAM :

Programming & Development : Alexandra Zaïnal
Original concept : Baudouin d'Aumeries
Technical & hardware support : Manuel Goepfert
Assistance : Marc-Olivier Méhu




SOURCES & CREDITS :

   NOAA